Time;durP1;ratioP1;P1;durP2;ratioP2;P2;SDS_P1;SDS_P2;PMS_P1;PMS_P2;Temp;Humidity;BMP_temperature;BMP_pressure;BME280_temperature;BME280_humidity;BME280_pressure;Samples;Min_cycle;Max_cycle;Signal;HPM_P1;HPM_P2
2023/04/22 00:01:32;;;;;;;5.43;4.90;;;;;;;7.66;100.00;101463.66;5072187;28;20782;-46
2023/04/22 00:04:00;;;;;;;8.03;5.27;;;;;;;7.66;100.00;101458.34;5071352;28;20492;-44
2023/04/22 00:06:30;;;;;;;5.40;4.70;;;;;;;7.65;100.00;101458.47;5071651;28;20477;-48
2023/04/22 00:08:58;;;;;;;5.13;4.80;;;;;;;7.65;100.00;101461.16;5072125;28;20457;-43
2023/04/22 00:11:26;;;;;;;8.53;6.97;;;;;;;7.61;100.00;101452.69;5072147;28;20433;-45
2023/04/22 00:13:55;;;;;;;5.93;5.43;;;;;;;7.60;100.00;101451.03;5072289;28;20426;-46
2023/04/22 00:16:22;;;;;;;5.80;5.17;;;;;;;7.60;100.00;101450.19;5070071;28;20461;-47
2023/04/22 00:18:50;;;;;;;5.03;4.60;;;;;;;7.56;100.00;101438.22;5072253;28;20517;-45
2023/04/22 00:21:18;;;;;;;6.70;5.00;;;;;;;7.57;100.00;101429.25;5071660;28;20955;-43
2023/04/22 00:23:46;;;;;;;5.03;4.70;;;;;;;7.57;100.00;101430.09;5064103;28;20463;-47
2023/04/22 00:26:14;;;;;;;6.13;5.63;;;;;;;7.56;100.00;101428.44;5051636;28;20455;-48
2023/04/22 00:28:41;;;;;;;6.20;5.57;;;;;;;7.58;100.00;101417.66;5052167;28;20771;-43
2023/04/22 00:31:11;;;;;;;5.93;5.33;;;;;;;7.57;100.00;101414.19;5052033;28;20498;-44
2023/04/22 00:33:39;;;;;;;5.80;5.20;;;;;;;7.55;100.00;101424.13;5051910;28;20953;-47
2023/04/22 00:36:07;;;;;;;8.53;6.87;;;;;;;7.56;100.00;101406.34;5051083;28;20463;-45
2023/04/22 00:38:35;;;;;;;5.63;5.23;;;;;;;7.55;100.00;101402.06;5051774;28;20438;-46
2023/04/22 00:41:03;;;;;;;6.07;5.57;;;;;;;7.57;100.00;101411.53;5051781;28;20453;-44
2023/04/22 00:43:30;;;;;;;8.10;5.67;;;;;;;7.57;100.00;101408.03;5051503;28;20477;-45
2023/04/22 00:45:59;;;;;;;9.03;6.23;;;;;;;7.57;100.00;101408.03;5049583;28;20838;-43
2023/04/22 00:48:29;;;;;;;6.37;5.77;;;;;;;7.56;100.00;101401.88;5051437;28;20431;-44
2023/04/22 00:50:57;;;;;;;6.40;5.70;;;;;;;7.53;100.00;101391.59;5051944;28;20439;-44
2023/04/22 00:53:25;;;;;;;8.13;5.73;;;;;;;7.50;100.00;101396.38;5051351;28;20438;-48
2023/04/22 00:55:52;;;;;;;6.27;5.77;;;;;;;7.48;100.00;101387.75;5051170;28;20431;-48
2023/04/22 00:58:22;;;;;;;6.67;6.07;;;;;;;7.48;100.00;101385.13;5051790;28;20433;-45
2023/04/22 01:00:51;;;;;;;8.50;5.70;;;;;;;7.47;100.00;101383.44;5051732;28;20457;-45
2023/04/22 01:03:21;;;;;;;9.57;6.43;;;;;;;7.45;100.00;101380.13;5051314;28;20471;-50
2023/04/22 01:05:50;;;;;;;7.23;5.90;;;;;;;7.45;100.00;101380.13;5051542;28;20451;-46
2023/04/22 01:08:18;;;;;;;7.30;6.67;;;;;;;7.45;100.00;101388.91;5051044;28;20505;-48
2023/04/22 01:10:46;;;;;;;6.83;6.23;;;;;;;7.45;100.00;101380.13;5051707;28;20427;-43
2023/04/22 01:13:13;;;;;;;6.90;6.30;;;;;;;7.44;100.00;101378.44;5051249;28;20800;-43
2023/04/22 01:15:41;;;;;;;6.33;5.83;;;;;;;7.42;100.00;101372.47;5052487;28;20431;-46
2023/04/22 01:18:10;;;;;;;6.47;5.97;;;;;;;7.41;100.00;101370.81;5053633;28;20471;-47
2023/04/22 01:20:37;;;;;;;7.80;5.63;;;;;;;7.40;100.00;101372.66;5055271;28;20435;-46
2023/04/22 01:23:15;;;;;;;7.23;6.63;;;;;;;7.38;100.00;101361.34;5054822;28;20470;-44
2023/04/22 01:25:43;;;;;;;6.70;6.10;;;;;;;7.40;100.00;101369.16;5055043;28;20435;-43
2023/04/22 01:28:11;;;;;;;6.77;6.10;;;;;;;7.41;100.00;101362.84;5054610;28;21084;-46
2023/04/22 01:30:39;;;;;;;6.67;6.23;;;;;;;7.39;100.00;101359.53;5055236;28;21118;-47
2023/04/22 01:33:07;;;;;;;11.30;6.33;;;;;;;7.38;100.00;101357.91;5054580;28;20435;-43
2023/04/22 01:35:36;;;;;;;7.63;6.77;;;;;;;7.37;100.00;101353.56;5054935;28;20484;-43
2023/04/22 01:38:04;;;;;;;8.77;7.23;;;;;;;7.35;100.00;101351.06;5054088;28;20463;-43
2023/04/22 01:40:34;;;;;;;9.90;7.40;;;;;;;7.32;100.00;101346.06;5054627;28;20441;-44
2023/04/22 01:43:03;;;;;;;12.20;7.00;;;;;;;7.33;100.00;101346.91;5054415;28;20852;-44
2023/04/22 01:45:31;;;;;;;6.77;6.30;;;;;;;7.31;100.00;101346.25;5054660;28;20431;-46
2023/04/22 01:47:58;;;;;;;6.80;6.20;;;;;;;7.31;100.00;101343.59;5051834;28;20479;-43
2023/04/22 01:50:27;;;;;;;7.90;6.43;;;;;;;7.27;100.00;101337.78;5054693;28;20639;-46
2023/04/22 01:52:54;;;;;;;9.40;5.63;;;;;;;7.29;100.00;101337.63;5054104;28;20437;-44
2023/04/22 01:55:22;;;;;;;6.53;6.10;;;;;;;7.29;100.00;101332.31;5054828;28;20435;-43
2023/04/22 01:57:52;;;;;;;10.27;6.90;;;;;;;7.27;100.00;101326.34;5053877;28;21010;-46
2023/04/22 02:00:19;;;;;;;7.10;6.40;;;;;;;7.27;100.00;101328.97;5054314;28;20453;-44
2023/04/22 02:02:47;;;;;;;7.57;6.80;;;;;;;7.28;100.00;101325.34;5054052;28;20442;-43
2023/04/22 02:05:15;;;;;;;9.90;6.80;;;;;;;7.29;100.00;101321.72;5054126;28;20475;-44
2023/04/22 02:07:43;;;;;;;7.37;6.70;;;;;;;7.27;100.00;101321.03;5053604;28;20898;-44
2023/04/22 02:10:11;;;;;;;7.13;6.20;;;;;;;7.24;100.00;101323.03;5054290;28;20801;-43
2023/04/22 02:12:39;;;;;;;7.27;6.77;;;;;;;7.24;100.00;101316.88;5053916;28;20439;-43
2023/04/22 02:15:10;;;;;;;10.53;7.30;;;;;;;7.24;100.00;101317.72;5054095;28;20467;-43
2023/04/22 02:17:38;;;;;;;8.10;6.83;;;;;;;7.23;100.00;101318.69;5048097;28;20475;-43
2023/04/22 02:20:06;;;;;;;7.57;6.87;;;;;;;7.21;100.00;101309.25;5053925;28;20837;-45
2023/04/22 02:22:34;;;;;;;7.13;6.47;;;;;;;7.18;100.00;101323.66;5053890;28;20439;-46
2023/04/22 02:25:02;;;;;;;7.70;6.83;;;;;;;7.15;100.00;101300.09;5054005;28;20520;-45
2023/04/22 02:27:30;;;;;;;7.57;6.90;;;;;;;7.14;100.00;101305.56;5052516;28;20907;-43
2023/04/22 02:29:58;;;;;;;7.13;6.53;;;;;;;7.05;100.00;101302.06;5053698;28;20435;-44
2023/04/22 02:32:27;;;;;;;7.93;7.43;;;;;;;7.09;100.00;101307.88;5053542;28;21006;-45
2023/04/22 02:34:54;;;;;;;7.60;6.80;;;;;;;7.06;100.00;101297.59;5053471;28;21040;-43
2023/04/22 02:37:22;;;;;;;6.73;6.23;;;;;;;7.06;100.00;101292.28;5053142;28;20463;-45
2023/04/22 02:39:50;;;;;;;8.43;7.73;;;;;;;7.05;100.00;101288.78;5053722;28;20431;-43
2023/04/22 02:42:18;;;;;;;10.17;7.67;;;;;;;7.03;100.00;101279.34;5053554;28;20431;-45
2023/04/22 02:44:45;;;;;;;8.93;7.40;;;;;;;7.03;100.00;101289.94;5053615;28;20471;-46
2023/04/22 02:47:13;;;;;;;7.83;6.97;;;;;;;7.01;100.00;101271.56;5050692;28;20467;-44
2023/04/22 02:49:42;;;;;;;7.67;6.90;;;;;;;7.01;100.00;101268.91;5053575;28;20488;-46
2023/04/22 02:52:09;;;;;;;13.23;7.83;;;;;;;7.01;100.00;101262.78;5053279;28;20473;-46
2023/04/22 02:54:37;;;;;;;7.17;6.50;;;;;;;7.02;100.00;101264.41;5053101;28;20952;-45
2023/04/22 02:57:05;;;;;;;8.10;7.43;;;;;;;6.98;100.00;101261.28;5052604;28;20969;-46
2023/04/22 02:59:34;;;;;;;7.83;7.07;;;;;;;6.98;100.00;101255.97;5053168;28;20438;-46
2023/04/22 03:02:02;;;;;;;7.97;7.17;;;;;;;6.98;100.00;101266.56;5052867;28;20435;-44
2023/04/22 03:04:33;;;;;;;8.23;7.60;;;;;;;6.99;100.00;101257.63;5053223;28;20548;-43
2023/04/22 03:07:03;;;;;;;9.50;7.50;;;;;;;6.98;100.00;101260.44;5052124;28;20893;-44
2023/04/22 03:09:30;;;;;;;9.07;8.10;;;;;;;6.97;100.00;101251.66;5052996;28;20454;-43
2023/04/22 03:11:58;;;;;;;8.90;8.13;;;;;;;6.97;100.00;101245.50;5052712;28;20423;-43
2023/04/22 03:14:26;;;;;;;8.67;8.00;;;;;;;6.94;100.00;101244.00;5052770;28;20431;-49
2023/04/22 03:16:53;;;;;;;9.17;8.30;;;;;;;6.93;100.00;101244.19;5053031;28;20469;-46
2023/04/22 03:19:21;;;;;;;9.43;7.33;;;;;;;6.93;100.00;101237.03;5052633;28;20443;-48
2023/04/22 03:21:48;;;;;;;8.90;7.67;;;;;;;6.91;100.00;101233.72;5052576;28;20434;-45
2023/04/22 03:24:17;;;;;;;8.13;7.53;;;;;;;6.87;100.00;101228.94;5052587;28;20471;-49
2023/04/22 03:26:45;;;;;;;9.83;8.13;;;;;;;6.88;100.00;101226.09;5052384;28;20447;-45
2023/04/22 03:29:13;;;;;;;9.23;8.43;;;;;;;6.90;100.00;101225.94;5052053;28;21003;-45
2023/04/22 03:31:41;;;;;;;10.30;8.40;;;;;;;6.89;100.00;101222.47;5052473;28;20467;-46
2023/04/22 03:34:09;;;;;;;8.33;7.53;;;;;;;6.90;100.00;101221.44;5052369;28;20967;-43
2023/04/22 03:36:37;;;;;;;10.93;8.23;;;;;;;6.87;100.00;101219.13;5052437;28;20509;-43
2023/04/22 03:39:04;;;;;;;9.93;8.63;;;;;;;6.89;100.00;101221.63;5051887;28;20463;-45
2023/04/22 03:41:33;;;;;;;8.30;7.50;;;;;;;6.89;100.00;101218.97;5051859;28;20924;-46
2023/04/22 03:44:01;;;;;;;8.83;8.00;;;;;;;6.87;100.00;101210.38;5052438;28;20466;-44
2023/04/22 03:46:29;;;;;;;9.33;8.50;;;;;;;6.88;100.00;101204.88;5051947;28;20470;-44
2023/04/22 03:48:57;;;;;;;9.37;8.37;;;;;;;6.86;100.00;101192.78;5026389;28;20466;-45
2023/04/22 03:51:24;;;;;;;9.57;8.67;;;;;;;6.87;100.00;101191.81;5051691;28;20530;-47
2023/04/22 03:53:52;;;;;;;13.20;9.77;;;;;;;6.85;100.00;101181.34;5052018;28;20525;-43
2023/04/22 03:56:20;;;;;;;12.80;9.10;;;;;;;6.86;100.00;101183.03;5052126;28;20545;-43
2023/04/22 03:58:49;;;;;;;13.47;8.97;;;;;;;6.88;100.00;101183.69;5051556;28;20836;-50
2023/04/22 04:01:17;;;;;;;11.40;10.20;;;;;;;6.90;100.00;101175.59;5052068;28;20797;-45
2023/04/22 04:03:44;;;;;;;11.93;9.87;;;;;;;6.93;100.00;101173.41;5051799;28;20435;-46
2023/04/22 04:06:12;;;;;;;14.03;10.70;;;;;;;6.91;100.00;101164.78;5051397;28;20985;-43
2023/04/22 04:08:40;;;;;;;12.77;9.97;;;;;;;6.94;100.00;101151.22;5051204;28;20475;-44
2023/04/22 04:11:09;;;;;;;10.10;9.10;;;;;;;6.94;100.00;101156.53;5051849;28;20504;-44
2023/04/22 04:13:37;;;;;;;11.00;10.03;;;;;;;6.95;100.00;101160.84;5051577;28;20431;-45
2023/04/22 04:16:06;;;;;;;10.70;9.77;;;;;;;6.99;100.00;101156.03;5051714;28;20513;-45
2023/04/22 04:18:35;;;;;;;12.00;10.43;;;;;;;7.02;100.00;101158.34;5059849;28;21078;-44
2023/04/22 04:21:03;;;;;;;11.20;9.90;;;;;;;7.08;100.00;101163.00;5071448;28;20453;-44
2023/04/22 04:23:31;;;;;;;9.60;8.80;;;;;;;7.14;100.00;101163.16;5071612;28;20435;-43
2023/04/22 04:26:01;;;;;;;9.13;8.20;;;;;;;7.18;100.00;101172.47;5071609;28;20561;-45
2023/04/22 04:28:31;;;;;;;10.50;9.70;;;;;;;7.17;100.00;101156.72;5071276;28;20462;-44
2023/04/22 04:30:58;;;;;;;12.53;10.20;;;;;;;7.24;100.00;101155.91;5071543;28;20434;-47
2023/04/22 04:33:27;;;;;;;15.10;13.70;;;;;;;7.46;100.00;101157.06;5071332;28;20528;-47
2023/04/22 04:35:55;;;;;;;10.60;9.70;;;;;;;7.69;100.00;101159.88;5070372;28;20422;-45
2023/04/22 04:38:23;;;;;;;15.13;13.63;;;;;;;7.90;100.00;101165.47;5071303;28;20557;-44
2023/04/22 04:40:52;;;;;;;17.03;15.40;;;;;;;8.00;100.00;101158.16;5071536;28;20458;-43
2023/04/22 04:43:24;;;;;;;27.97;25.37;;;;;;;8.15;100.00;101150.31;5071166;28;20438;-45
2023/04/22 04:45:52;;;;;;;11.90;10.93;;;;;;;8.26;100.00;101152.59;5071042;28;20469;-45
2023/04/22 04:48:23;;;;;;;13.57;12.37;;;;;;;8.30;100.00;101151.31;5044875;28;20465;-43
2023/04/22 04:50:53;;;;;;;16.00;10.27;;;;;;;8.41;100.00;101147.44;5073082;28;20769;-43
2023/04/22 04:53:21;;;;;;;10.97;9.97;;;;;;;8.61;100.00;101146.00;5075121;28;20484;-46
2023/04/22 04:55:49;;;;;;;10.47;9.47;;;;;;;8.93;100.00;101145.00;5075062;28;20497;-46
2023/04/22 04:58:17;;;;;;;10.53;9.50;;;;;;;9.63;100.00;101143.78;5074588;28;20824;-44
2023/04/22 05:00:44;;;;;;;10.10;9.30;;;;;;;10.43;100.00;101138.59;5075049;28;20450;-44
2023/04/22 05:03:12;;;;;;;10.37;9.57;;;;;;;11.15;100.00;101144.75;5075213;28;20441;-43
2023/04/22 05:05:40;;;;;;;9.20;8.30;;;;;;;11.85;100.00;101130.59;5074909;28;20469;-48
2023/04/22 05:08:09;;;;;;;9.77;8.80;;;;;;;12.46;100.00;101123.50;5072180;28;20458;-45
2023/04/22 05:10:37;;;;;;;9.43;8.53;;;;;;;12.70;100.00;101123.81;5071640;28;20444;-47
2023/04/22 05:13:04;;;;;;;9.23;8.53;;;;;;;12.86;100.00;101119.94;5065796;28;20441;-47
2023/04/22 05:15:32;;;;;;;8.50;7.70;;;;;;;13.27;100.00;101115.31;5016630;28;20507;-44
2023/04/22 05:18:00;;;;;;;10.03;9.17;;;;;;;13.83;100.00;101115.69;5074170;28;20454;-47
2023/04/22 05:20:28;;;;;;;9.40;8.60;;;;;;;14.39;100.00;101123.22;5074557;28;20509;-51
2023/04/22 05:22:56;;;;;;;8.07;7.57;;;;;;;15.14;100.00;101118.91;5073434;28;20430;-46
2023/04/22 05:25:24;;;;;;;9.87;8.90;;;;;;;15.70;99.99;101121.59;5070583;28;20478;-45
2023/04/22 05:27:52;;;;;;;9.17;8.50;;;;;;;16.16;86.74;101107.69;5073128;28;20454;-48
2023/04/22 05:30:20;;;;;;;8.00;7.20;;;;;;;16.41;81.31;101111.94;5072834;28;20432;-46
2023/04/22 05:32:48;;;;;;;8.40;7.50;;;;;;;16.43;73.74;101117.06;5073114;28;20941;-45
2023/04/22 05:35:16;;;;;;;9.47;8.60;;;;;;;16.49;73.03;101116.16;5069175;28;20433;-49
2023/04/22 05:37:43;;;;;;;9.60;8.57;;;;;;;16.68;75.29;101120.53;5074005;28;20811;-48
2023/04/22 05:40:12;;;;;;;8.80;7.63;;;;;;;16.86;70.00;101117.78;5072996;28;20434;-51
2023/04/22 05:42:41;;;;;;;6.90;6.40;;;;;;;16.92;69.10;101111.50;5073132;28;20442;-51
2023/04/22 05:45:09;;;;;;;7.60;7.10;;;;;;;17.22;70.23;101110.63;5073162;28;20437;-51
2023/04/22 05:47:37;;;;;;;9.40;8.03;;;;;;;17.68;69.85;101098.03;5066994;28;21018;-52
2023/04/22 05:50:05;;;;;;;7.37;6.77;;;;;;;17.94;65.01;101096.75;5072426;28;20456;-50
2023/04/22 05:52:33;;;;;;;9.40;7.73;;;;;;;18.24;65.04;101094.72;5073133;28;20453;-48
2023/04/22 05:55:00;;;;;;;8.87;8.17;;;;;;;18.56;62.58;101094.31;5073763;28;20851;-52
2023/04/22 05:57:28;;;;;;;9.87;8.67;;;;;;;18.33;62.85;101097.88;5070463;28;20470;-49
2023/04/22 05:59:58;;;;;;;8.47;7.77;;;;;;;18.77;58.93;101094.44;5071027;28;20434;-52
2023/04/22 06:02:26;;;;;;;9.30;8.40;;;;;;;18.84;58.68;101094.31;5071211;28;20463;-49
2023/04/22 06:04:54;;;;;;;8.83;8.10;;;;;;;19.10;60.07;101087.47;5072850;28;20434;-50
2023/04/22 06:07:22;;;;;;;8.40;7.70;;;;;;;19.32;56.92;101078.38;5072363;28;20542;-54
2023/04/22 06:09:50;;;;;;;8.70;8.00;;;;;;;19.02;56.67;101075.19;5073028;28;20452;-49
2023/04/22 06:12:30;;;;;;;8.73;8.07;;;;;;;19.30;54.07;101077.81;5072833;28;20816;-52
2023/04/22 06:14:59;;;;;;;9.13;8.43;;;;;;;19.60;54.18;101076.66;5072804;28;20426;-50
2023/04/22 06:17:27;;;;;;;8.70;8.00;;;;;;;19.94;57.11;101082.84;5070857;28;20493;-49
2023/04/22 06:19:55;;;;;;;9.33;8.63;;;;;;;19.80;50.72;101074.28;5072140;28;20496;-47
2023/04/22 06:22:22;;;;;;;8.93;8.23;;;;;;;20.09;51.64;101069.53;5072249;28;20491;-46
2023/04/22 06:24:50;;;;;;;8.97;8.10;;;;;;;20.23;49.92;101066.19;5073633;28;20517;-46
2023/04/22 06:27:18;;;;;;;10.00;9.10;;;;;;;20.39;52.11;101061.81;5073182;28;20465;-48
2023/04/22 06:29:46;;;;;;;9.43;8.50;;;;;;;20.58;50.80;101060.38;5073658;28;20438;-47
2023/04/22 06:32:15;;;;;;;10.23;9.20;;;;;;;20.33;47.50;101055.53;5071754;28;20438;-47
2023/04/22 06:34:43;;;;;;;10.43;9.63;;;;;;;20.80;47.33;101060.34;5072629;28;20441;-49
2023/04/22 06:37:10;;;;;;;9.20;8.50;;;;;;;20.91;50.01;101060.19;5068228;28;20469;-45
2023/04/22 06:39:38;;;;;;;9.07;8.37;;;;;;;21.12;46.08;101057.69;5072630;28;20456;-50
2023/04/22 06:42:07;;;;;;;9.20;8.40;;;;;;;20.62;46.11;101049.84;5071769;28;20803;-50
2023/04/22 06:44:35;;;;;;;9.40;8.60;;;;;;;21.13;45.76;101046.59;5072158;28;20430;-44
2023/04/22 06:47:03;;;;;;;9.17;8.27;;;;;;;21.14;45.65;101031.97;5067319;28;20477;-45
2023/04/22 06:49:32;;;;;;;10.03;8.33;;;;;;;20.75;45.63;101042.16;5073011;28;20440;-47
2023/04/22 06:52:00;;;;;;;9.73;8.93;;;;;;;20.86;44.19;101029.50;5071973;28;20819;-44
2023/04/22 06:54:28;;;;;;;9.87;8.20;;;;;;;20.93;45.51;101043.69;5072032;28;20965;-44
2023/04/22 06:56:56;;;;;;;9.33;8.63;;;;;;;21.11;46.16;101040.63;5072222;28;20456;-45
2023/04/22 06:59:24;;;;;;;10.77;9.83;;;;;;;20.66;43.55;101027.44;5072449;28;20749;-44
2023/04/22 07:01:51;;;;;;;9.30;8.23;;;;;;;20.37;43.87;101032.25;5072336;28;20430;-47
2023/04/22 07:04:19;;;;;;;9.20;8.40;;;;;;;20.66;45.99;101029.31;5072063;28;20462;-48
2023/04/22 07:06:48;;;;;;;9.20;8.53;;;;;;;20.81;46.12;101026.75;5072520;28;20470;-46
2023/04/22 07:09:16;;;;;;;9.93;9.17;;;;;;;20.42;44.39;101024.19;5061438;28;20858;-51
2023/04/22 07:11:44;;;;;;;9.30;8.37;;;;;;;20.40;45.47;101017.38;5071642;28;20434;-48
2023/04/22 07:14:11;;;;;;;10.03;9.03;;;;;;;20.59;46.99;101010.53;5072119;28;20830;-48
2023/04/22 07:16:39;;;;;;;8.97;8.10;;;;;;;20.54;46.39;101010.50;5067293;28;20454;-46
2023/04/22 07:19:07;;;;;;;10.73;9.10;;;;;;;20.22;45.17;101012.28;5047701;28;20463;-48
2023/04/22 07:21:34;;;;;;;9.17;8.40;;;;;;;20.20;46.44;101012.53;5051550;28;20844;-51
2023/04/22 07:24:04;;;;;;;9.53;8.83;;;;;;;19.81;45.03;101010.97;5051426;28;20466;-45
2023/04/22 07:26:33;;;;;;;10.53;9.57;;;;;;;19.82;47.35;101015.31;5066443;28;20496;-44
2023/04/22 07:29:01;;;;;;;10.37;8.17;;;;;;;19.64;46.39;101021.00;5067785;28;20462;-47
2023/04/22 07:31:28;;;;;;;10.07;9.07;;;;;;;19.69;46.50;101016.47;5069073;28;20430;-45
2023/04/22 07:33:56;;;;;;;10.03;9.10;;;;;;;19.85;46.67;101012.09;5069021;28;20437;-43
2023/04/22 07:36:25;;;;;;;9.70;8.90;;;;;;;19.61;48.12;101016.91;5069104;28;20507;-46
2023/04/22 07:38:52;;;;;;;10.97;9.83;;;;;;;19.18;48.54;101028.41;5063834;28;20461;-50
2023/04/22 07:41:22;;;;;;;10.57;9.70;;;;;;;18.97;48.91;101023.72;5068840;28;20438;-48
2023/04/22 07:43:49;;;;;;;9.87;9.17;;;;;;;19.00;49.87;101027.81;5050093;28;20948;-44
2023/04/22 07:46:17;;;;;;;9.97;9.13;;;;;;;18.75;50.07;101022.81;5049083;28;20450;-45
2023/04/22 07:48:44;;;;;;;10.60;9.50;;;;;;;18.72;50.99;101024.13;5048584;28;21145;-44
2023/04/22 07:51:12;;;;;;;10.37;9.23;;;;;;;18.40;52.20;101019.44;5050973;28;20493;-46
2023/04/22 07:53:40;;;;;;;11.53;9.53;;;;;;;18.33;52.30;101022.28;5050677;28;20812;-44
2023/04/22 07:56:07;;;;;;;12.87;9.83;;;;;;;18.33;52.71;101006.06;5052106;28;20457;-46
2023/04/22 07:58:36;;;;;;;10.93;9.83;;;;;;;18.38;51.84;100994.53;5058319;28;20924;-45
2023/04/22 08:01:05;;;;;;;10.40;9.23;;;;;;;18.28;51.54;100999.75;5060304;28;20426;-44
2023/04/22 08:03:32;;;;;;;10.93;9.93;;;;;;;18.50;50.84;101000.72;5068948;28;20438;-47
2023/04/22 08:06:00;;;;;;;10.60;9.70;;;;;;;18.71;51.32;100991.94;5069219;28;20434;-46
2023/04/22 08:08:28;;;;;;;10.47;9.67;;;;;;;18.74;50.02;100986.03;5068222;28;20840;-45
2023/04/22 08:10:56;;;;;;;10.90;9.80;;;;;;;18.90;49.62;100985.25;5068637;28;20461;-49
2023/04/22 08:13:23;;;;;;;10.70;9.77;;;;;;;19.19;49.68;100978.69;5069643;28;21174;-48
2023/04/22 08:15:52;;;;;;;10.07;9.10;;;;;;;18.99;48.74;100977.53;5069858;28;20433;-44
2023/04/22 08:18:20;;;;;;;9.57;8.77;;;;;;;18.68;48.98;100966.22;5068215;28;20491;-44
2023/04/22 08:20:48;;;;;;;12.37;9.77;;;;;;;18.77;49.37;100963.94;5067998;28;20468;-45
2023/04/22 08:23:16;;;;;;;12.87;9.77;;;;;;;18.44;49.96;100967.38;5068885;28;20457;-43
2023/04/22 08:25:43;;;;;;;11.10;9.70;;;;;;;18.57;49.82;100958.19;5067375;28;20426;-45
2023/04/22 08:28:11;;;;;;;11.03;10.13;;;;;;;18.57;50.33;100955.50;5070021;28;20854;-50
2023/04/22 08:30:39;;;;;;;10.67;9.67;;;;;;;18.77;50.14;100953.13;5068468;28;20461;-49
2023/04/22 08:33:08;;;;;;;10.10;8.63;;;;;;;18.76;48.51;100941.50;5069341;28;20433;-50
2023/04/22 08:35:36;;;;;;;15.10;10.07;;;;;;;19.01;50.24;100957.31;5070734;28;20457;-50
2023/04/22 08:38:04;;;;;;;10.23;9.50;;;;;;;18.93;49.85;100951.50;5070699;28;20537;-46
2023/04/22 08:40:31;;;;;;;11.43;8.90;;;;;;;19.02;50.54;100950.84;5068577;28;20465;-45
2023/04/22 08:42:59;;;;;;;14.83;8.97;;;;;;;18.95;49.58;100938.56;5068942;28;20487;-44
2023/04/22 08:45:27;;;;;;;13.23;9.10;;;;;;;18.57;50.41;100944.69;5070710;28;20436;-48
2023/04/22 08:47:55;;;;;;;10.33;9.43;;;;;;;18.60;51.94;100938.81;5070186;28;20484;-44
2023/04/22 08:50:26;;;;;;;9.37;8.67;;;;;;;18.73;50.88;100927.66;5053897;28;20466;-47
2023/04/22 08:52:54;;;;;;;11.60;8.77;;;;;;;19.05;50.53;100931.44;5070513;28;20422;-52
2023/04/22 08:55:22;;;;;;;10.63;9.43;;;;;;;19.25;51.36;100923.63;5071251;28;20426;-47
2023/04/22 08:57:50;;;;;;;11.40;9.40;;;;;;;19.49;50.76;100918.00;5070866;28;20473;-52
2023/04/22 09:00:18;;;;;;;10.40;9.20;;;;;;;19.57;50.96;100921.09;5070462;28;20473;-49
2023/04/22 09:02:47;;;;;;;9.93;9.03;;;;;;;19.62;50.21;100917.66;5070528;28;20437;-45
2023/04/22 09:05:15;;;;;;;9.27;8.53;;;;;;;19.70;49.72;100915.31;5070532;28;20529;-45
2023/04/22 09:07:45;;;;;;;10.37;9.13;;;;;;;19.88;48.53;100908.75;5069644;28;20508;-45
2023/04/22 09:10:12;;;;;;;10.00;9.20;;;;;;;19.94;48.51;100913.16;5067768;28;20975;-44
2023/04/22 09:12:41;;;;;;;9.30;8.40;;;;;;;20.22;48.95;100920.22;5067880;28;20434;-44
2023/04/22 09:15:10;;;;;;;10.07;8.10;;;;;;;20.36;48.28;100908.75;5055479;28;20433;-44
2023/04/22 09:17:38;;;;;;;12.13;9.07;;;;;;;20.54;49.13;100907.56;5050116;28;20828;-45
2023/04/22 09:20:08;;;;;;;9.00;8.07;;;;;;;20.85;48.62;100916.72;5057657;28;20472;-44
2023/04/22 09:22:41;;;;;;;9.87;9.13;;;;;;;20.77;47.61;100909.06;5058399;28;20446;-46
2023/04/22 09:25:17;;;;;;;12.50;9.50;;;;;;;20.76;47.06;100908.25;5060190;28;20809;-49
2023/04/22 09:27:49;;;;;;;9.47;8.57;;;;;;;20.70;47.25;100908.47;5062394;28;20512;-49
2023/04/22 09:30:18;;;;;;;9.47;7.90;;;;;;;21.12;47.88;100914.78;5069639;28;20472;-49
2023/04/22 09:32:53;;;;;;;11.93;8.70;;;;;;;21.10;46.59;100914.22;5069147;28;20436;-50
2023/04/22 09:35:29;;;;;;;9.50;8.80;;;;;;;21.06;46.90;100912.25;5067630;28;20433;-45
2023/04/22 09:37:57;;;;;;;9.17;8.43;;;;;;;21.09;46.96;100909.88;5071496;28;20473;-45
2023/04/22 09:40:27;;;;;;;13.50;9.10;;;;;;;21.01;46.47;100904.91;5060272;28;20494;-48
2023/04/22 09:42:57;;;;;;;11.67;9.30;;;;;;;20.99;46.68;100901.66;5058128;28;20464;-48
2023/04/22 09:45:29;;;;;;;11.17;8.97;;;;;;;21.17;46.99;100901.25;5072976;28;20521;-47
2023/04/22 09:48:00;;;;;;;11.50;8.73;;;;;;;21.03;47.12;100900.03;5073627;28;20530;-47
2023/04/22 09:50:28;;;;;;;10.37;8.70;;;;;;;21.13;46.01;100896.59;5069375;28;20457;-47
2023/04/22 09:52:59;;;;;;;9.10;8.40;;;;;;;21.02;46.38;100900.31;5060000;28;20430;-49
2023/04/22 09:55:31;;;;;;;14.33;9.00;;;;;;;20.95;47.18;100890.50;5059107;28;20418;-44
2023/04/22 09:58:05;;;;;;;10.30;9.37;;;;;;;21.25;47.02;100892.63;5054894;28;20455;-47
2023/04/22 10:00:34;;;;;;;10.20;9.30;;;;;;;21.23;46.77;100897.50;5070842;28;20460;-46
2023/04/22 10:03:02;;;;;;;11.30;10.30;;;;;;;21.14;47.47;100876.56;5072868;28;20441;-46
2023/04/22 10:05:30;;;;;;;14.43;9.73;;;;;;;21.51;47.42;100878.09;5071165;28;20433;-48
2023/04/22 10:07:58;;;;;;;10.57;9.33;;;;;;;21.79;47.51;100857.84;5063802;28;20485;-53
2023/04/22 10:10:26;;;;;;;9.90;9.07;;;;;;;21.49;46.85;100858.56;5055256;28;20465;-45
2023/04/22 10:12:55;;;;;;;9.90;9.00;;;;;;;21.63;47.04;100855.31;5061512;28;20441;-48
2023/04/22 10:15:23;;;;;;;9.17;8.47;;;;;;;21.84;45.74;100849.69;5053801;28;20438;-47
2023/04/22 10:17:55;;;;;;;10.17;9.07;;;;;;;21.84;46.28;100855.13;5055791;28;20500;-45
2023/04/22 10:20:24;;;;;;;9.73;8.87;;;;;;;21.72;45.70;100854.53;5052914;28;20991;-45
2023/04/22 10:22:53;;;;;;;15.37;9.57;;;;;;;21.67;46.00;100842.88;5069714;28;20430;-45
2023/04/22 10:25:22;;;;;;;9.33;8.40;;;;;;;21.78;47.00;100849.94;5073226;28;20468;-45
2023/04/22 10:28:02;;;;;;;8.60;8.00;;;;;;;21.75;46.20;100840.44;5072438;28;20454;-46
2023/04/22 10:30:32;;;;;;;9.43;8.70;;;;;;;21.81;46.88;100838.56;5070865;28;20461;-49
2023/04/22 10:33:34;;;;;;;12.23;8.63;;;;;;;21.45;47.18;100835.75;5070990;28;20966;-45
2023/04/22 10:36:06;;;;;;;11.40;9.30;;;;;;;21.35;46.94;100833.00;5071101;28;20433;-46
2023/04/22 10:38:34;;;;;;;9.10;8.30;;;;;;;21.43;47.46;100832.47;5067182;28;20950;-50
2023/04/22 10:41:03;;;;;;;10.07;9.23;;;;;;;21.53;46.53;100832.50;5063360;28;20465;-45
2023/04/22 10:43:49;;;;;;;11.10;8.97;;;;;;;21.76;47.11;100827.69;5054798;28;20435;-45
2023/04/22 10:46:54;;;;;;;8.90;8.30;;;;;;;21.95;45.80;100816.06;5072162;28;20460;-48
2023/04/22 10:49:24;;;;;;;11.00;8.60;;;;;;;22.23;46.91;100838.38;5066637;28;20480;-53
2023/04/22 10:51:54;;;;;;;11.57;8.53;;;;;;;22.38;45.97;100825.59;5072653;28;20440;-45
2023/04/22 10:54:57;;;;;;;8.90;8.17;;;;;;;22.53;45.26;100825.59;5060802;28;20438;-44
2023/04/22 10:57:35;;;;;;;9.07;7.93;;;;;;;22.55;44.76;100825.31;5065830;28;20450;-47
2023/04/22 11:00:18;;;;;;;8.13;7.60;;;;;;;22.60;45.12;100814.47;5059023;28;20457;-44
2023/04/22 11:02:46;;;;;;;8.60;7.90;;;;;;;22.56;45.12;100808.75;5072396;28;20430;-46
2023/04/22 11:05:22;;;;;;;8.33;7.47;;;;;;;22.78;44.53;100805.75;5072326;28;20458;-48
2023/04/22 11:07:54;;;;;;;10.27;8.20;;;;;;;22.90;45.60;100797.28;5071202;28;20978;-47
2023/04/22 11:10:39;;;;;;;8.33;7.63;;;;;;;23.14;45.14;100798.31;5071739;28;20866;-47
2023/04/22 11:13:15;;;;;;;9.80;8.90;;;;;;;22.84;45.46;100799.22;5059316;28;21097;-45
2023/04/22 11:15:46;;;;;;;9.50;8.80;;;;;;;22.87;44.71;100792.41;5066067;28;20746;-47
2023/04/22 11:18:20;;;;;;;9.13;8.40;;;;;;;22.74;44.67;100795.69;5062622;28;20432;-45
2023/04/22 11:20:49;;;;;;;8.87;8.27;;;;;;;22.95;44.72;100783.66;5068213;28;20536;-45
2023/04/22 11:23:19;;;;;;;8.90;8.07;;;;;;;22.91;44.74;100790.75;5070783;28;20430;-46
2023/04/22 11:25:46;;;;;;;8.77;8.10;;;;;;;23.12;44.44;100784.13;5052010;28;20430;-47
2023/04/22 11:28:14;;;;;;;11.40;8.40;;;;;;;23.38;45.24;100784.84;5052524;28;20466;-46
2023/04/22 11:30:42;;;;;;;8.73;7.90;;;;;;;23.50;44.04;100780.75;5051563;28;21110;-46